1933 Tropical Cyclone (Gale) NOT_NAMED (1933069S15153)


IBTrACS version v04r00. Visit IBTrACS website for data access.
Please direct all questions to the IBTrACS Q and A forum

Storm track - Intensity - Wind Radii - Intensity Data - Source Data - All data

Summary Information

Storm ID 1933069S15153
Start Mar 9 23Z
Max Intensity 45 kt (Mar 16 00Z), 990 mb (Mar 15 23Z)
End Mar 16 23Z
ATCF IDs
Track status Best track data.

Storm track plot

Map of storm track

Intensity plots

Map of storm track

Radial wind information

No radial wind information for this storm


Position and Intensity Table

BASIN ISO_TIME_________ NATURE LAT LON WMO PRES BOM PRES DS824 WIND DS824 PRES
degrees north degrees east mb mb kts mb
SP 1933-03-09 23:00:00 NR -15.20 152.50
SP 1933-03-10 00:00:00 NR -15.30 152.48
SP 03:00:00 NR -15.60 152.41
SP 06:00:00 TS -15.89 152.35
SP 07:00:00 TS -15.98 152.34
SP 09:00:00 TS -16.15 152.33
SP 11:00:00 TS -16.31 152.34
SP 12:00:00 TS -16.39 152.35
SP 15:00:00 TS -16.64 152.39
SP 18:00:00 TS -16.88 152.46
SP 21:00:00 TS -17.11 152.53
SP 23:00:00 TS -17.27 152.59
SP 1933-03-11 00:00:00 TS -17.35 152.62
SP 03:00:00 TS -17.60 152.71
SP 06:00:00 TS -17.84 152.81
SP 09:00:00 TS -18.09 152.93
SP 11:00:00 TS -18.25 153.01
SP 12:00:00 TS -18.34 153.06
SP 15:00:00 TS -18.60 153.20
SP 18:00:00 TS -18.87 153.35
SP 21:00:00 TS -19.13 153.50
SP 23:00:00 TS -19.30 153.61
SP 1933-03-12 00:00:00 TS -19.39 153.67
SP 03:00:00 TS -19.65 153.83
SP 06:00:00 TS -19.90 154.00
SP 09:00:00 TS -20.16 154.18
SP 11:00:00 TS -20.33 154.30
SP 12:00:00 TS -20.41 154.36
SP 15:00:00 TS -20.66 154.53
SP 18:00:00 TS -20.91 154.71
SP 21:00:00 TS -21.15 154.90
SP 23:00:00 TS -21.31 155.04
SP 1933-03-13 00:00:00 TS -21.38 155.11
SP 03:00:00 TS -21.57 155.31
SP 06:00:00 TS -21.75 155.52
SP 09:00:00 TS -21.93 155.75
SP 11:00:00 TS -22.05 155.91
SP 12:00:00 TS -22.11 155.98
SP 15:00:00 TS -22.30 156.23
SP 18:00:00 TS -22.51 156.50
SP 21:00:00 TS -22.76 156.81
SP 23:00:00 TS -22.96 157.06
SP 1933-03-14 00:00:00 TS -23.07 157.19
SP 03:00:00 TS -23.43 157.64
SP 06:00:00 TS -23.84 158.14
SP 09:00:00 TS -24.29 158.65
SP 11:00:00 TS -24.61 158.98
SP 12:00:00 TS -24.78 159.14
SP 15:00:00 TS -25.30 159.63
SP 18:00:00 TS -25.85 160.09
SP 21:00:00 TS -26.39 160.53
SP 23:00:00 TS -26.74 160.79
SP 1933-03-15 00:00:00 TS -26.91 160.91
SP 03:00:00 TS -27.38 161.25
SP 06:00:00 TS -27.83 161.54
SP 09:00:00 TS -28.26 161.81
SP 11:00:00 TS -28.54 161.97
SP 12:00:00 TS -28.68 162.05
SP 15:00:00 TS -29.09 162.30
SP 18:00:00 TS -29.48 162.53
SP 21:00:00 TS -29.85 162.77
SP 23:00:00 TS -30.07 162.93 990 990
SP 1933-03-16 00:00:00 TS -30.17 163.01 45 990
SP 03:00:00 NR -30.44 163.26
SP 06:00:00 NR -30.69 163.50
SP 09:00:00 NR -30.91 163.74
SP 11:00:00 NR -31.05 163.90
SP 12:00:00 NR -31.11 163.98
SP 15:00:00 NR -31.29 164.24
SP 18:00:00 NR -31.45 164.50
SP 21:00:00 NR -31.60 164.77
SP 23:00:00 NR -31.70 164.95

Source Information

Agency Information
USA
TOKYO
CMA
HKO
NEWDELHI
REUNION
BOM IDCKMSTM0S.csv:Line=797:unnamed
NADI
WELLINGTON
DS824 aus_area.dat:77:NOT NAMED
TD9636 cons_worldwide_trop_cyclone_18710101-19891231-006:Line=1917
TD9635
NEUMANN
MLC

All available IBTrACS Data

SEASON BASIN SUBBASIN ISO_TIME_________ NATURE LAT LON WMO PRES WMO AGENCY DIST2LAND LANDFALL IFLAG USA SSHS BOM LAT BOM LON BOM PRES BOM PRES_METHOD DS824 LAT DS824 LON DS824 STAGE DS824 WIND DS824 PRES TD9636 LAT TD9636 LON TD9636 STAGE STORM SPEED STORM DIR
Year degrees north degrees east mb km km 1 degrees north degrees east mb degrees north degrees east kts mb degrees north degrees east kts degrees
1933 SP EA 1933-03-09 23:00:00 NR -15.20 152.50 bom 550 550 ______O___O___ -1 -15.10 152.60 -15.30 152.40 7 6 0
1933 SP EA 1933-03-10 00:00:00 NR -15.30 152.48 561 561 ______P___P___ -1 -15.22 152.55 -15.38 152.40 7 6 192
1933 SP EA 03:00:00 NR -15.60 152.41 589 589 ______P___P___ -1 -15.57 152.42 -15.62 152.39 7 6 192
1933 SP EA 06:00:00 TS -15.89 152.35 615 606 ______P__OP___ -1 -15.90 152.32 -15.90 152.30 TC -15.87 152.38 7 6 190
1933 SP EA 07:00:00 TS -15.98 152.34 bom 606 597 ______O__PP___ -1 -16.00 152.30 -15.98 152.31 TC -15.95 152.39 7 5 184
1933 SP EA 09:00:00 TS -16.15 152.33 597 580 ______P__PP___ -1 -16.19 152.28 -16.13 152.33 TC -16.12 152.39 7 5 177
1933 SP EA 11:00:00 TS -16.31 152.34 580 571 ______P__PO___ -1 -16.35 152.27 -16.28 152.36 TC -16.30 152.40 7 5 174
1933 SP EA 12:00:00 TS -16.39 152.35 578 561 ______P__PP___ -1 -16.43 152.28 -16.35 152.37 TC -16.39 152.41 7 5 171
1933 SP EA 15:00:00 TS -16.64 152.39 561 544 ______P__PP___ -1 -16.65 152.33 -16.58 152.41 TC -16.67 152.44 7 5 169
1933 SP EA 18:00:00 TS -16.88 152.46 544 529 ______P__PP___ -1 -16.86 152.42 -16.82 152.46 TC -16.95 152.49 7 5 165
1933 SP EA 21:00:00 TS -17.11 152.53 529 521 ______P__PP___ -1 -17.06 152.52 -17.06 152.52 TC -17.23 152.55 7 5 161
1933 SP EA 23:00:00 TS -17.27 152.59 bom 522 522 ______O__PO___ -1 -17.20 152.60 -17.22 152.57 TC -17.40 152.60 7 5 161
1933 SP EA 1933-03-11 00:00:00 TS -17.35 152.62 514 509 ______P__OP___ -1 -17.28 152.63 -17.30 152.60 TC -17.48 152.62 7 5 161
1933 SP EA 03:00:00 TS -17.60 152.71 509 502 ______P__PP___ -1 -17.53 152.72 -17.55 152.69 TC -17.71 152.71 7 5 159
1933 SP EA 06:00:00 TS -17.84 152.81 504 495 ______P__PP___ -1 -17.78 152.82 -17.81 152.81 TC -17.93 152.80 7 5 157
1933 SP EA 09:00:00 TS -18.09 152.93 495 495 ______P__PP___ -1 -18.05 152.94 -18.07 152.93 TC -18.15 152.92 7 6 155
1933 SP EA 11:00:00 TS -18.25 153.01 494 494 ______P__PO___ -1 -18.22 153.02 -18.24 153.02 TC -18.30 153.00 7 6 154
1933 SP EA 12:00:00 TS -18.34 153.06 503 493 ______P__PP___ -1 -18.31 153.06 -18.33 153.07 TC -18.38 153.04 7 6 154
1933 SP EA 15:00:00 TS -18.60 153.20 498 475 ______P__PP___ -1 -18.58 153.20 -18.60 153.22 TC -18.63 153.17 7 6 153
1933 SP EA 18:00:00 TS -18.87 153.35 475 470 ______P__PP___ -1 -18.85 153.34 -18.86 153.37 TC -18.88 153.32 7 6 151
1933 SP EA 21:00:00 TS -19.13 153.50 470 459 ______P__PP___ -1 -19.12 153.50 -19.13 153.53 TC -19.14 153.48 7 6 150
1933 SP EA 23:00:00 TS -19.30 153.61 bom 459 457 ______O__PO___ -1 -19.30 153.60 -19.31 153.64 TC -19.30 153.60 7 6 149
1933 SP EA 1933-03-12 00:00:00 TS -19.39 153.67 457 448 ______P__OP___ -1 -19.39 153.65 -19.40 153.70 TC -19.38 153.66 7 6 149
1933 SP EA 03:00:00 TS -19.65 153.83 448 440 ______P__PP___ -1 -19.66 153.80 -19.67 153.85 TC -19.61 153.86 7 6 149
1933 SP EA 06:00:00 TS -19.90 154.00 441 433 ______P__PP___ -1 -19.94 153.95 -19.94 154.00 TC -19.83 154.06 7 6 148
1933 SP EA 09:00:00 TS -20.16 154.18 435 429 ______P__PP___ -1 -20.21 154.11 -20.22 154.16 TC -20.05 154.27 7 6 147
1933 SP EA 11:00:00 TS -20.33 154.30 437 431 ______P__PO___ -1 -20.39 154.23 -20.40 154.27 TC -20.20 154.40 7 6 147
1933 SP EA 12:00:00 TS -20.41 154.36 440 434 ______P__PP___ -1 -20.48 154.28 -20.49 154.33 TC -20.27 154.46 7 6 147
1933 SP EA 15:00:00 TS -20.66 154.53 432 432 ______P__PP___ -1 -20.74 154.46 -20.75 154.50 TC -20.50 154.63 7 6 146
1933 SP EA 18:00:00 TS -20.91 154.71 440 436 ______P__PP___ -1 -20.99 154.66 -21.01 154.69 TC -20.72 154.79 7 6 144
1933 SP EA 21:00:00 TS -21.15 154.90 434 428 ______P__PP___ -1 -21.24 154.86 -21.26 154.89 TC -20.95 154.97 7 6 142
1933 SP EA 23:00:00 TS -21.31 155.04 bom 428 422 ______O__PO___ -1 -21.40 155.00 -21.42 155.03 TC -21.10 155.10 7 6 141
1933 SP EA 1933-03-13 00:00:00 TS -21.38 155.11 422 411 ______P__OP___ -1 -21.46 155.06 -21.50 155.10 TC -21.18 155.17 7 5 136
1933 SP EA 03:00:00 TS -21.57 155.31 411 407 ______P__PP___ -1 -21.64 155.23 -21.67 155.29 TC -21.40 155.41 7 5 134
1933 SP EA 06:00:00 TS -21.75 155.52 403 400 ______P__PP___ -1 -21.80 155.42 -21.83 155.49 TC -21.63 155.66 7 5 132
1933 SP EA 09:00:00 TS -21.93 155.75 406 403 ______P__PP___ -1 -21.96 155.62 -21.99 155.70 TC -21.85 155.93 7 6 130
1933 SP EA 11:00:00 TS -22.05 155.91 401 401 ______P__PO___ -1 -22.07 155.76 -22.09 155.86 TC -22.00 156.10 7 6 130
1933 SP EA 12:00:00 TS -22.11 155.98 408 400 ______P__PP___ -1 -22.13 155.84 -22.15 155.94 TC -22.06 156.17 7 6 130
1933 SP EA 15:00:00 TS -22.30 156.23 406 406 ______P__PP___ -1 -22.32 156.10 -22.33 156.20 TC -22.26 156.39 7 6 130
1933 SP EA 18:00:00 TS -22.51 156.50 414 414 ______P__PP___ -1 -22.54 156.39 -22.54 156.49 TC -22.46 156.61 7 7 131
1933 SP EA 21:00:00 TS -22.76 156.81 420 420 ______P__PP___ -1 -22.80 156.74 -22.79 156.82 TC -22.70 156.88 7 8 131
1933 SP EA 23:00:00 TS -22.96 157.06 bom 435 435 ______O__PO___ -1 -23.00 157.00 -22.99 157.07 TC -22.90 157.10 7 9 132
1933 SP EA 1933-03-14 00:00:00 TS -23.07 157.19 439 439 ______P__OP___ -1 -23.11 157.15 -23.10 157.20 TC -23.01 157.23 7 11 131
1933 SP EA 03:00:00 TS -23.43 157.64 461 461 ______P__PP___ -1 -23.46 157.63 -23.46 157.64 TC -23.38 157.66 7 12 132
1933 SP EA 06:00:00 TS -23.84 158.14 494 494 ______P__PP___ -1 -23.85 158.15 -23.87 158.12 TC -23.81 158.14 7 13 133
1933 SP EA 09:00:00 TS -24.29 158.65 530 530 ______P__PP___ -1 -24.28 158.67 -24.32 158.62 TC -24.27 158.65 7 13 135
1933 SP EA 11:00:00 TS -24.61 158.98 bom 566 565 ______O__PO___ -1 -24.60 159.00 -24.64 158.94 TC -24.60 159.00 7 13 137
1933 SP EA 12:00:00 TS -24.78 159.14 574 574 ______P__OP___ -1 -24.77 159.16 -24.80 159.10 TC -24.77 159.17 7 14 140
1933 SP EA 15:00:00 TS -25.30 159.63 624 624 ______P__PP___ -1 -25.30 159.61 -25.31 159.56 TC -25.30 159.71 7 14 141
1933 SP MM 18:00:00 TS -25.85 160.09 678 678 ______P__PP___ -1 -25.87 160.05 -25.84 160.00 TC -25.84 160.23 7 14 143
1933 SP MM 21:00:00 TS -26.39 160.53 710 710 ______P__PP___ -1 -26.43 160.45 -26.38 160.41 TC -26.37 160.71 7 13 145
1933 SP MM 23:00:00 TS -26.74 160.79 bom 723 723 ______O__PO___ -1 -26.80 160.70 -26.73 160.68 TC -26.70 161.00 7 12 146
1933 SP MM 1933-03-15 00:00:00 TS -26.91 160.91 733 733 ______P__OP___ -1 -26.97 160.82 -26.90 160.80 TC -26.85 161.12 7 11 148
1933 SP MM 03:00:00 TS -27.38 161.25 751 751 ______P__PP___ -1 -27.48 161.15 -27.40 161.15 TC -27.27 161.45 7 11 149
1933 SP MM 06:00:00 TS -27.83 161.54 775 775 ______P__PP___ -1 -27.96 161.45 -27.86 161.46 TC -27.67 161.71 7 10 151
1933 SP MM 09:00:00 TS -28.26 161.81 801 801 ______P__PP___ -1 -28.42 161.72 -28.31 161.75 TC -28.05 161.95 7 10 152
1933 SP MM 11:00:00 TS -28.54 161.97 819 817 ______P__PO___ -1 -28.71 161.89 -28.59 161.92 TC -28.30 162.10 7 9 152
1933 SP MM 12:00:00 TS -28.68 162.05 827 826 ______P__PP___ -1 -28.86 161.97 -28.73 162.01 TC -28.44 162.19 7 9 152
1933 SP MM 15:00:00 TS -29.09 162.30 845 845 ______P__PP___ -1 -29.26 162.20 -29.14 162.25 TC -28.87 162.45 7 9 153
1933 SP MM 18:00:00 TS -29.48 162.53 865 865 ______P__PP___ -1 -29.64 162.42 -29.53 162.47 TC -29.28 162.70 7 9 152
1933 SP MM 21:00:00 TS -29.85 162.77 896 896 ______P__PP___ -1 -29.99 162.65 -29.92 162.69 TC -29.67 162.94 7 8 150
1933 SP MM 23:00:00 TS -30.07 162.93 990 bom 908 908 ______O__PO___ -1 -30.20 162.80 990 4 -30.17 162.83 TC -29.90 163.10 7 8 146
1933 SP MM 1933-03-16 00:00:00 TS -30.17 163.01 919 919 ______P__OP___ -1 -30.30 162.88 -30.30 162.90 TC 45 990 -30.01 163.18 7 7 142
1933 SP MM 03:00:00 NR -30.44 163.26 950 950 ______P___P___ -1 -30.58 163.12 TC -30.30 163.40 7 7 141
1933 SP MM 06:00:00 NR -30.69 163.50 950 922 ______P___P___ -1 -30.83 163.37 TC -30.55 163.62 7 6 139
1933 SP MM 09:00:00 NR -30.91 163.74 922 900 ______P___P___ -1 -31.05 163.63 TC -30.77 163.85 7 6 136
1933 SP MM 11:00:00 NR -31.05 163.90 900 886 ______P___O___ -1 -31.19 163.80 TC -30.90 164.00 7 6 132
1933 SP MM 12:00:00 NR -31.11 163.98 886 859 ______P___P___ -1 -31.26 163.89 TC -30.96 164.08 7 6 129
1933 SP MM 15:00:00 NR -31.29 164.24 859 829 ______P___P___ -1 -31.45 164.16 TC -31.13 164.32 7 6 127
1933 SP MM 18:00:00 NR -31.45 164.50 829 794 ______P___P___ -1 -31.62 164.44 TC -31.27 164.57 7 6 125
1933 SP MM 21:00:00 NR -31.60 164.77 794 780 ______P___P___ -1 -31.79 164.71 TC -31.41 164.83 7 5 124
1933 SP MM 23:00:00 NR -31.70 164.95 bom 772 ______O___O___ -1 -31.90 164.90 TC -31.50 165.00 7 5 123